FHAW

Details ICAO FHAW
Name Ascension Wideawake Field
Region Saint Helena, Ascension and Tristan da Cunha
Timezone Atlantic/St_Helena (UTC+0.0)
Plans Departing 14
Arriving 26
Stats Elevation 278 ft / 85 m (AMSL)
Location -7.969590° -14.393699°
Runways 1
Magnetic Variation 15.500° W
Sunrise 2016-12-04 06:32:37 UTC / 2016-12-04 06:32:37 Local
Sunset 2016-12-04 19:06:14 UTC / 2016-12-04 19:06:14 Local
Advertisement - Login to hide

Runways

ID Width Length Bearing (true) Bearing (mag) Surface Threshold Offset Overrun Length
13 148 ft / 45 m 10,008 ft / 3,050 m 116.79° 132.29° Asphalt 0 ft / 0 m 262 ft / 80 m
31 148 ft / 45 m 10,008 ft / 3,050 m 296.79° 312.29° Asphalt 0 ft / 0 m 495 ft / 151 m

Map

Weather

Temperature
Clouds and Precipitation
Forecast for 2016-12-03 18:00 UTC. Updated 8 hours ago
Winds

METAR

FHAW 032350Z 15012KT 9999 SCT016 BKN030 24/20 Q1014 WHT

TAF

TAF FHAW 040130Z 0403/0421 14012KT 9999 FEW018 BKN030 PROB40 TEMPO 0403/0410 -SHRA SCT018 BKN030 PROB30 TEMPO 0403/0410 6000 -SHRA SCT014 BKN024

Frequencies

Tower 126.20 MHz Wideawake Tower
Warning: Do not use this data for real-world aviation or navigation. No guarantee of current accuracy is given.